Time;durP1;ratioP1;P1;durP2;ratioP2;P2;SDS_P1;SDS_P2;PMS_P1;PMS_P2;Temp;Humidity;BMP_temperature;BMP_pressure;BME280_temperature;BME280_humidity;BME280_pressure;Samples;Min_cycle;Max_cycle;Signal;HPM_P1;HPM_P2
2023/07/30 00:01:48;;;;;;;12.50;9.35;;;;;;;;;;6347439;22;20449;-86
2023/07/30 00:04:15;;;;;;;14.30;8.50;;;;;;;;;;6371963;22;20024;-86
2023/07/30 00:06:41;;;;;;;12.63;8.18;;;;;;;;;;6345401;22;20048;-86
2023/07/30 00:09:08;;;;;;;11.80;8.60;;;;;;;;;;6345633;22;20244;-86
2023/07/30 00:11:35;;;;;;;13.75;8.23;;;;;;;;;;6345152;22;20078;-86
2023/07/30 00:14:03;;;;;;;16.73;8.50;;;;;;;;;;6372492;22;20026;-85
2023/07/30 00:16:32;;;;;;;11.68;8.10;;;;;;;;;;6347646;22;20412;-86
2023/07/30 00:18:59;;;;;;;15.13;9.18;;;;;;;;;;6345648;22;20027;-86
2023/07/30 00:21:26;;;;;;;13.73;9.77;;;;;;;;;;6339217;22;20027;-86
2023/07/30 00:23:53;;;;;;;17.73;8.90;;;;;;;;;;6340897;22;20480;-86
2023/07/30 00:26:20;;;;;;;12.48;9.25;;;;;;;;;;6339675;22;20105;-86
2023/07/30 00:28:47;;;;;;;17.60;9.35;;;;;;;;;;6342787;22;20022;-86
2023/07/30 00:31:14;;;;;;;15.02;9.00;;;;;;;;;;6341233;22;20046;-86
2023/07/30 00:33:41;;;;;;;13.30;8.73;;;;;;;;;;6339849;22;20026;-85
2023/07/30 00:36:14;;;;;;;13.75;9.90;;;;;;;;;;6340037;22;20142;-86
2023/07/30 00:38:40;;;;;;;12.85;9.23;;;;;;;;;;6339662;22;20314;-86
2023/07/30 00:41:07;;;;;;;13.88;8.68;;;;;;;;;;6345249;22;20074;-86
2023/07/30 00:43:34;;;;;;;11.70;8.23;;;;;;;;;;6343796;22;20067;-86
2023/07/30 00:46:05;;;;;;;17.15;7.93;;;;;;;;;;6336301;22;20453;-86
2023/07/30 00:48:31;;;;;;;10.15;7.38;;;;;;;;;;6340304;22;20078;-86
2023/07/30 00:51:04;;;;;;;11.75;7.95;;;;;;;;;;6340166;22;20027;-86
2023/07/30 00:53:33;;;;;;;12.00;7.70;;;;;;;;;;6343635;22;20083;-86
2023/07/30 00:56:02;;;;;;;10.82;8.35;;;;;;;;;;6344424;22;20026;-86
2023/07/30 00:58:30;;;;;;;15.07;7.80;;;;;;;;;;6345805;22;20029;-85
2023/07/30 01:00:56;;;;;;;18.00;8.00;;;;;;;;;;6348709;22;20073;-85
2023/07/30 01:03:23;;;;;;;17.50;8.00;;;;;;;;;;6346228;22;20122;-85
2023/07/30 01:05:51;;;;;;;11.23;7.43;;;;;;;;;;6345565;22;20053;-85
2023/07/30 01:08:18;;;;;;;14.27;8.60;;;;;;;;;;6341204;22;20023;-86
2023/07/30 01:10:45;;;;;;;14.27;7.30;;;;;;;;;;6341165;22;20412;-86
2023/07/30 01:13:13;;;;;;;15.23;8.23;;;;;;;;;;6340284;22;20073;-86
2023/07/30 01:15:41;;;;;;;13.50;8.07;;;;;;;;;;6340517;22;20033;-86
2023/07/30 01:18:08;;;;;;;10.45;8.02;;;;;;;;;;6344957;22;20023;-86
2023/07/30 01:20:35;;;;;;;15.07;8.10;;;;;;;;;;6342154;22;20023;-86
2023/07/30 01:23:02;;;;;;;13.75;8.15;;;;;;;;;;6338703;22;20019;-86
2023/07/30 01:25:30;;;;;;;12.27;7.78;;;;;;;;;;6337783;22;20046;-85
2023/07/30 01:28:01;;;;;;;19.08;8.52;;;;;;;;;;6337647;22;20022;-85
2023/07/30 01:30:48;;;;;;;11.52;8.23;;;;;;;;;;6340195;22;20060;-86
2023/07/30 01:33:15;;;;;;;18.83;7.85;;;;;;;;;;6338665;22;20109;-86
2023/07/30 01:35:45;;;;;;;11.32;7.20;;;;;;;;;;6340725;22;20045;-85
2023/07/30 01:38:12;;;;;;;12.25;7.70;;;;;;;;;;6339008;22;20031;-86
2023/07/30 01:40:39;;;;;;;15.23;9.15;;;;;;;;;;6337178;22;20416;-86
2023/07/30 01:43:07;;;;;;;14.95;8.77;;;;;;;;;;6341031;22;20289;-86
2023/07/30 01:45:34;;;;;;;12.48;8.45;;;;;;;;;;6340210;22;20153;-86
2023/07/30 01:48:07;;;;;;;10.55;7.88;;;;;;;;;;6338689;22;20046;-86
2023/07/30 01:57:20;;;;;;;15.30;8.98;;;;;;;;;;6341870;22;20280;-85
2023/07/30 01:59:47;;;;;;;17.00;9.43;;;;;;;;;;6342708;22;20023;-86
2023/07/30 02:02:14;;;;;;;14.13;8.93;;;;;;;;;;6339376;22;20079;-86
2023/07/30 02:04:41;;;;;;;12.88;8.45;;;;;;;;;;6345622;22;20048;-86
2023/07/30 02:07:08;;;;;;;15.60;8.32;;;;;;;;;;6340537;22;20023;-86
2023/07/30 02:09:35;;;;;;;18.98;9.50;;;;;;;;;;6339669;22;20026;-86
2023/07/30 02:12:03;;;;;;;13.38;8.90;;;;;;;;;;6341829;22;20317;-86
2023/07/30 02:14:30;;;;;;;15.10;8.73;;;;;;;;;;6340916;22;20018;-86
2023/07/30 02:16:57;;;;;;;13.65;8.10;;;;;;;;;;6339587;22;20037;-86
2023/07/30 02:19:24;;;;;;;17.50;8.30;;;;;;;;;;6338142;22;20161;-85
2023/07/30 02:21:52;;;;;;;13.27;8.98;;;;;;;;;;6380549;22;20053;-86
2023/07/30 02:24:18;;;;;;;13.70;7.80;;;;;;;;;;6345408;22;20018;-86
2023/07/30 02:26:45;;;;;;;19.25;9.20;;;;;;;;;;6375013;22;20064;-85
2023/07/30 02:29:12;;;;;;;14.43;8.57;;;;;;;;;;6346202;22;20044;-86
2023/07/30 02:31:42;;;;;;;16.92;8.38;;;;;;;;;;6346104;22;20106;-86
2023/07/30 02:34:09;;;;;;;11.63;8.07;;;;;;;;;;6345003;22;20022;-86
2023/07/30 02:36:35;;;;;;;14.02;8.90;;;;;;;;;;6376955;22;20022;-86
2023/07/30 02:39:02;;;;;;;14.57;8.25;;;;;;;;;;6353290;22;20075;-85
2023/07/30 02:41:31;;;;;;;13.48;7.97;;;;;;;;;;6346854;22;20027;-85
2023/07/30 02:43:58;;;;;;;16.05;10.20;;;;;;;;;;6346651;22;20033;-85
2023/07/30 02:46:25;;;;;;;17.50;8.30;;;;;;;;;;6344383;22;20404;-86
2023/07/30 02:48:52;;;;;;;14.77;8.52;;;;;;;;;;6374421;22;20057;-86
2023/07/30 02:51:21;;;;;;;14.18;8.88;;;;;;;;;;6347474;22;20018;-85
2023/07/30 02:53:51;;;;;;;15.32;8.20;;;;;;;;;;6346585;22;20089;-86
2023/07/30 02:56:18;;;;;;;14.68;8.52;;;;;;;;;;6346539;22;20022;-86
2023/07/30 02:58:45;;;;;;;15.88;9.18;;;;;;;;;;6346808;22;20101;-86
2023/07/30 03:01:14;;;;;;;17.35;9.23;;;;;;;;;;6346421;22;20097;-86
2023/07/30 03:03:41;;;;;;;16.77;9.80;;;;;;;;;;6344076;22;20156;-86
2023/07/30 03:06:08;;;;;;;20.05;9.32;;;;;;;;;;6371642;22;20022;-86
2023/07/30 03:08:38;;;;;;;17.17;9.52;;;;;;;;;;6346610;22;20194;-86
2023/07/30 03:11:05;;;;;;;18.25;9.45;;;;;;;;;;6346257;22;20023;-85
2023/07/30 03:13:33;;;;;;;18.20;9.18;;;;;;;;;;6348573;22;20149;-85
2023/07/30 03:15:59;;;;;;;20.20;10.75;;;;;;;;;;6352266;22;20041;-86
2023/07/30 03:18:27;;;;;;;16.35;9.20;;;;;;;;;;6352038;22;20355;-86
2023/07/30 03:20:58;;;;;;;18.65;8.70;;;;;;;;;;6341445;22;20022;-86
2023/07/30 03:23:25;;;;;;;20.92;10.80;;;;;;;;;;6343089;22;20019;-86
2023/07/30 03:25:54;;;;;;;18.38;9.65;;;;;;;;;;6350907;22;20021;-87
2023/07/30 03:28:22;;;;;;;17.15;9.60;;;;;;;;;;6352653;22;20107;-87
2023/07/30 03:30:49;;;;;;;16.40;8.70;;;;;;;;;;6341057;22;20029;-87
2023/07/30 03:33:16;;;;;;;27.60;9.73;;;;;;;;;;6341272;22;20110;-87
2023/07/30 03:35:44;;;;;;;19.65;10.15;;;;;;;;;;6340276;22;20317;-87
2023/07/30 03:38:12;;;;;;;22.15;9.52;;;;;;;;;;6341470;22;20022;-87
2023/07/30 03:40:42;;;;;;;22.90;10.32;;;;;;;;;;6339781;22;20018;-87
2023/07/30 03:43:09;;;;;;;23.90;9.55;;;;;;;;;;6340781;22;20015;-87
2023/07/30 03:45:38;;;;;;;21.00;8.90;;;;;;;;;;6339910;22;20416;-86
2023/07/30 03:48:06;;;;;;;10.48;7.47;;;;;;;;;;6343177;22;20027;-87
2023/07/30 03:50:35;;;;;;;26.00;9.05;;;;;;;;;;6342199;22;20019;-86
2023/07/30 03:53:02;;;;;;;19.83;8.35;;;;;;;;;;6340078;22;20033;-87
2023/07/30 03:55:29;;;;;;;12.85;7.43;;;;;;;;;;6342049;22;20038;-87
2023/07/30 03:57:58;;;;;;;12.57;7.30;;;;;;;;;;6351701;22;20023;-87
2023/07/30 04:00:29;;;;;;;22.48;8.52;;;;;;;;;;6343560;22;20030;-87
2023/07/30 04:02:56;;;;;;;21.77;7.85;;;;;;;;;;6345263;22;20023;-87
2023/07/30 04:05:26;;;;;;;23.65;8.38;;;;;;;;;;6343245;22;20026;-87
2023/07/30 04:07:53;;;;;;;18.00;7.80;;;;;;;;;;6343607;22;20076;-86
2023/07/30 04:10:20;;;;;;;15.45;6.72;;;;;;;;;;6343296;22;20090;-86
2023/07/30 04:12:46;;;;;;;20.17;7.03;;;;;;;;;;6342888;22;20015;-86
2023/07/30 04:15:14;;;;;;;21.73;7.32;;;;;;;;;;6343309;22;20023;-85
2023/07/30 04:17:44;;;;;;;22.77;6.82;;;;;;;;;;6342290;22;20033;-85
2023/07/30 04:20:11;;;;;;;23.42;5.88;;;;;;;;;;6345761;22;20250;-86
2023/07/30 04:22:41;;;;;;;21.38;6.55;;;;;;;;;;6346788;22;20400;-86
2023/07/30 04:25:08;;;;;;;18.75;5.80;;;;;;;;;;6375857;22;20030;-85
2023/07/30 04:27:38;;;;;;;19.25;5.95;;;;;;;;;;6374183;22;20033;-86
2023/07/30 04:30:05;;;;;;;26.65;6.65;;;;;;;;;;6374704;22;20022;-85
2023/07/30 04:32:33;;;;;;;19.45;6.15;;;;;;;;;;6347687;22;20022;-85
2023/07/30 04:35:02;;;;;;;20.50;6.28;;;;;;;;;;6347915;22;20090;-85
2023/07/30 04:37:29;;;;;;;11.50;4.90;;;;;;;;;;6347769;22;20026;-85
2023/07/30 04:39:56;;;;;;;20.48;7.00;;;;;;;;;;6379368;22;20199;-85
2023/07/30 04:42:26;;;;;;;30.10;5.88;;;;;;;;;;6351268;22;20102;-85
2023/07/30 04:44:52;;;;;;;11.20;5.15;;;;;;;;;;6378224;22;20435;-85
2023/07/30 04:47:19;;;;;;;21.02;6.50;;;;;;;;;;6354526;22;20254;-85
2023/07/30 04:49:47;;;;;;;22.08;6.22;;;;;;;;;;6364104;22;20030;-86
2023/07/30 04:52:14;;;;;;;23.67;5.80;;;;;;;;;;6362627;22;20038;-85
2023/07/30 04:54:41;;;;;;;12.82;5.30;;;;;;;;;;6389014;22;20070;-85
2023/07/30 04:57:08;;;;;;;23.33;6.18;;;;;;;;;;6363094;22;20034;-85
2023/07/30 04:59:35;;;;;;;12.60;5.00;;;;;;;;;;6363541;22;20059;-86
2023/07/30 05:02:03;;;;;;;18.30;6.43;;;;;;;;;;6361651;22;20018;-85
2023/07/30 05:04:33;;;;;;;18.58;5.38;;;;;;;;;;6355136;22;20033;-85
2023/07/30 05:07:00;;;;;;;17.80;4.22;;;;;;;;;;6348832;22;20022;-85
2023/07/30 05:09:28;;;;;;;16.20;4.53;;;;;;;;;;6351467;22;20027;-86
2023/07/30 05:11:58;;;;;;;10.57;4.10;;;;;;;;;;6348133;22;20156;-85
2023/07/30 05:14:28;;;;;;;16.80;5.10;;;;;;;;;;6349975;22;20022;-86
2023/07/30 05:16:55;;;;;;;14.05;4.63;;;;;;;;;;6356920;22;20105;-85
2023/07/30 05:19:22;;;;;;;12.63;4.00;;;;;;;;;;6375551;22;20022;-85
2023/07/30 05:21:53;;;;;;;11.93;3.80;;;;;;;;;;6344645;22;20042;-85
2023/07/30 05:24:36;;;;;;;8.90;3.38;;;;;;;;;;6357001;22;20056;-85
2023/07/30 05:27:17;;;;;;;15.93;3.25;;;;;;;;;;6354516;22;20014;-86
2023/07/30 05:30:01;;;;;;;14.90;3.38;;;;;;;;;;6346482;22;20404;-85
2023/07/30 05:32:28;;;;;;;12.15;3.20;;;;;;;;;;6342543;22;20023;-85
2023/07/30 05:34:56;;;;;;;14.20;3.03;;;;;;;;;;6341998;22;20034;-85
2023/07/30 05:37:28;;;;;;;9.05;2.97;;;;;;;;;;6343934;22;20048;-85
2023/07/30 05:43:07;;;;;;;12.23;2.65;;;;;;;;;;6345702;22;20049;-85
2023/07/30 05:45:34;;;;;;;5.65;2.08;;;;;;;;;;6341166;22;20293;-85
2023/07/30 05:48:01;;;;;;;5.80;2.53;;;;;;;;;;6345368;22;20336;-85
2023/07/30 05:50:27;;;;;;;6.03;2.47;;;;;;;;;;6342570;22;20027;-85
2023/07/30 05:52:54;;;;;;;13.73;2.83;;;;;;;;;;6346526;22;20023;-84
2023/07/30 05:55:24;;;;;;;7.05;2.42;;;;;;;;;;6342107;22;20083;-85
2023/07/30 05:57:55;;;;;;;7.93;2.75;;;;;;;;;;6342421;22;20025;-85
2023/07/30 06:00:22;;;;;;;8.80;2.72;;;;;;;;;;6342534;22;20041;-85
2023/07/30 06:02:52;;;;;;;10.30;3.10;;;;;;;;;;6349143;22;20029;-85
2023/07/30 06:05:20;;;;;;;14.30;3.40;;;;;;;;;;6348435;22;20026;-85
2023/07/30 06:08:07;;;;;;;19.92;3.72;;;;;;;;;;6341315;22;20022;-86
2023/07/30 06:10:41;;;;;;;9.88;2.60;;;;;;;;;;6356283;22;20041;-86
2023/07/30 06:13:14;;;;;;;7.53;2.63;;;;;;;;;;6350817;22;20110;-85
2023/07/30 06:15:45;;;;;;;9.70;2.22;;;;;;;;;;6348967;22;20304;-85
2023/07/30 06:18:26;;;;;;;13.57;2.85;;;;;;;;;;6347170;22;20021;-86
2023/07/30 06:21:03;;;;;;;9.88;3.45;;;;;;;;;;6345194;22;20031;-86
2023/07/30 06:23:35;;;;;;;13.25;2.35;;;;;;;;;;6344927;22;20022;-86
2023/07/30 06:26:06;;;;;;;7.43;2.28;;;;;;;;;;6346387;22;20049;-84
2023/07/30 06:28:47;;;;;;;11.27;2.72;;;;;;;;;;6345097;22;20050;-85
2023/07/30 06:31:15;;;;;;;12.40;2.80;;;;;;;;;;6345552;22;20045;-85
2023/07/30 06:33:46;;;;;;;15.98;3.05;;;;;;;;;;6346303;22;20045;-85
2023/07/30 06:36:20;;;;;;;9.95;2.78;;;;;;;;;;6352111;22;20067;-85
2023/07/30 06:39:01;;;;;;;10.95;3.63;;;;;;;;;;6347666;22;20051;-86
2023/07/30 06:41:33;;;;;;;12.68;3.22;;;;;;;;;;6347977;22;20315;-86
2023/07/30 06:44:16;;;;;;;8.02;2.25;;;;;;;;;;6343054;22;20027;-86
2023/07/30 06:46:46;;;;;;;8.15;2.35;;;;;;;;;;6342681;22;20019;-84
2023/07/30 06:49:20;;;;;;;11.90;2.88;;;;;;;;;;6343573;22;20011;-85
2023/07/30 06:51:47;;;;;;;13.85;3.33;;;;;;;;;;6343003;22;20080;-85
2023/07/30 06:54:30;;;;;;;13.88;3.05;;;;;;;;;;6343995;22;20038;-85
2023/07/30 06:57:02;;;;;;;11.13;3.08;;;;;;;;;;6344235;22;20203;-86
2023/07/30 06:59:29;;;;;;;11.25;3.00;;;;;;;;;;6346202;22;20053;-86
2023/07/30 07:02:11;;;;;;;15.15;2.72;;;;;;;;;;6345947;22;20052;-85
2023/07/30 07:04:42;;;;;;;7.80;2.80;;;;;;;;;;6346323;22;20110;-86
2023/07/30 07:07:09;;;;;;;14.75;3.00;;;;;;;;;;6348373;22;20106;-85
2023/07/30 07:09:42;;;;;;;16.88;4.00;;;;;;;;;;6354306;22;20090;-85
2023/07/30 07:12:23;;;;;;;11.45;2.50;;;;;;;;;;6345309;22;20023;-86
2023/07/30 07:14:58;;;;;;;13.85;3.67;;;;;;;;;;6352180;22;20046;-86
2023/07/30 07:17:41;;;;;;;11.10;3.08;;;;;;;;;;6355841;22;20026;-86
2023/07/30 07:20:15;;;;;;;12.15;3.65;;;;;;;;;;6348589;22;20058;-86
2023/07/30 07:22:52;;;;;;;12.80;2.97;;;;;;;;;;6377268;22;20022;-86
2023/07/30 07:25:24;;;;;;;16.40;3.33;;;;;;;;;;6374903;22;20066;-86
2023/07/30 07:28:00;;;;;;;14.95;2.80;;;;;;;;;;6375441;22;20083;-85
2023/07/30 07:30:39;;;;;;;11.35;2.90;;;;;;;;;;6361222;22;20011;-84
2023/07/30 07:33:12;;;;;;;15.10;3.53;;;;;;;;;;6360332;22;20042;-86
2023/07/30 07:35:47;;;;;;;17.00;3.33;;;;;;;;;;6353258;22;20025;-86
2023/07/30 07:38:18;;;;;;;6.80;2.08;;;;;;;;;;6382341;22;20029;-86
2023/07/30 07:41:05;;;;;;;17.13;3.28;;;;;;;;;;6351699;22;20081;-86
2023/07/30 07:43:49;;;;;;;14.60;2.22;;;;;;;;;;6376351;22;20010;-86
2023/07/30 07:46:34;;;;;;;13.98;2.70;;;;;;;;;;6374842;22;20026;-86
2023/07/30 07:49:02;;;;;;;19.13;2.90;;;;;;;;;;6349964;22;20119;-88
2023/07/30 07:51:29;;;;;;;11.50;3.38;;;;;;;;;;6353979;22;20042;-89
2023/07/30 07:54:12;;;;;;;16.85;2.97;;;;;;;;;;6357398;22;20058;-87
2023/07/30 07:56:39;;;;;;;10.75;2.97;;;;;;;;;;6360530;22;20104;-88
2023/07/30 07:59:07;;;;;;;11.38;2.70;;;;;;;;;;6387552;22;20022;-88
2023/07/30 08:01:34;;;;;;;8.45;2.15;;;;;;;;;;6389858;22;20019;-89
2023/07/30 08:04:03;;;;;;;9.63;2.25;;;;;;;;;;6358524;22;20215;-89
2023/07/30 08:06:32;;;;;;;10.57;2.60;;;;;;;;;;6360271;22;20010;-89
2023/07/30 08:09:21;;;;;;;10.27;2.38;;;;;;;;;;6359503;22;20076;-88
2023/07/30 08:11:51;;;;;;;9.70;2.35;;;;;;;;;;6384537;22;20074;-89
2023/07/30 08:14:18;;;;;;;14.95;2.83;;;;;;;;;;6358442;22;20234;-88
2023/07/30 08:16:50;;;;;;;11.23;3.10;;;;;;;;;;6386079;22;20034;-88
2023/07/30 08:19:20;;;;;;;10.10;2.40;;;;;;;;;;6360927;22;20117;-89
2023/07/30 08:21:56;;;;;;;12.68;2.67;;;;;;;;;;6352119;22;20027;-89
2023/07/30 08:24:24;;;;;;;10.35;2.95;;;;;;;;;;6351053;22;20041;-88
2023/07/30 08:26:53;;;;;;;7.70;2.90;;;;;;;;;;6351683;22;20033;-87
2023/07/30 08:29:26;;;;;;;13.20;2.47;;;;;;;;;;6353327;22;20027;-88
2023/07/30 08:31:56;;;;;;;11.55;3.88;;;;;;;;;;6354194;22;20022;-89
2023/07/30 08:34:35;;;;;;;7.68;2.55;;;;;;;;;;6350746;22;20045;-89
2023/07/30 08:37:28;;;;;;;19.58;3.28;;;;;;;;;;6352515;22;20033;-89
2023/07/30 08:39:57;;;;;;;16.15;2.85;;;;;;;;;;6351266;22;20022;-89
2023/07/30 08:42:28;;;;;;;16.67;3.70;;;;;;;;;;6353054;22;20026;-88
2023/07/30 08:45:05;;;;;;;15.05;3.13;;;;;;;;;;6356249;22;20029;-88
2023/07/30 08:47:36;;;;;;;13.95;2.90;;;;;;;;;;6354544;22;20070;-89
2023/07/30 08:50:12;;;;;;;10.38;2.90;;;;;;;;;;6355574;22;20027;-89
2023/07/30 08:52:42;;;;;;;13.50;3.25;;;;;;;;;;6355577;22;20027;-89
2023/07/30 08:55:14;;;;;;;9.75;2.47;;;;;;;;;;6359252;22;20011;-89
2023/07/30 08:57:45;;;;;;;12.52;2.88;;;;;;;;;;6360193;22;20076;-88
2023/07/30 09:00:19;;;;;;;13.52;3.15;;;;;;;;;;6356845;22;20029;-89
2023/07/30 09:02:58;;;;;;;14.00;3.53;;;;;;;;;;6357100;22;20034;-89
2023/07/30 09:05:30;;;;;;;15.88;3.15;;;;;;;;;;6338953;22;20032;-90
2023/07/30 09:07:59;;;;;;;11.30;3.20;;;;;;;;;;6353689;22;20057;-89
2023/07/30 09:10:31;;;;;;;15.43;3.65;;;;;;;;;;6356187;22;20056;-89
2023/07/30 09:12:59;;;;;;;12.63;3.00;;;;;;;;;;6358543;22;20007;-88
2023/07/30 09:15:32;;;;;;;11.60;3.35;;;;;;;;;;6362022;22;20026;-89
2023/07/30 09:18:04;;;;;;;7.53;2.40;;;;;;;;;;6358382;22;20127;-89
2023/07/30 09:21:03;;;;;;;12.00;2.78;;;;;;;;;;6360819;22;20266;-89
2023/07/30 09:23:45;;;;;;;13.95;3.67;;;;;;;;;;6389457;22;20211;-89
2023/07/30 09:26:19;;;;;;;16.13;3.28;;;;;;;;;;6390208;22;20018;-89
2023/07/30 09:29:00;;;;;;;12.18;3.30;;;;;;;;;;6364248;22;20033;-89
2023/07/30 09:31:47;;;;;;;14.32;2.65;;;;;;;;;;6391318;22;20023;-90
2023/07/30 09:34:17;;;;;;;15.40;2.83;;;;;;;;;;6363105;22;20044;-88
2023/07/30 09:37:00;;;;;;;18.38;3.45;;;;;;;;;;6391674;22;20014;-90
2023/07/30 09:39:43;;;;;;;12.98;3.33;;;;;;;;;;6365961;22;20030;-90
2023/07/30 09:42:12;;;;;;;13.00;3.53;;;;;;;;;;6391250;22;20272;-87
2023/07/30 09:44:48;;;;;;;14.02;3.60;;;;;;;;;;6361630;22;20037;-88
2023/07/30 09:47:17;;;;;;;11.63;3.25;;;;;;;;;;6387847;22;20030;-89
2023/07/30 09:50:02;;;;;;;16.63;3.78;;;;;;;;;;6363584;22;20164;-89
2023/07/30 09:53:07;;;;;;;14.18;3.03;;;;;;;;;;6361342;22;20022;-89
2023/07/30 09:55:42;;;;;;;18.50;3.78;;;;;;;;;;6359689;22;20078;-90
2023/07/30 09:58:24;;;;;;;16.83;4.85;;;;;;;;;;6361597;22;20018;-89
2023/07/30 10:00:54;;;;;;;10.95;3.15;;;;;;;;;;6360845;22;20072;-89
2023/07/30 10:03:30;;;;;;;14.50;2.92;;;;;;;;;;6362953;22;20312;-89
2023/07/30 10:06:08;;;;;;;14.30;3.22;;;;;;;;;;6362033;22;20022;-90
2023/07/30 10:08:47;;;;;;;13.27;3.17;;;;;;;;;;6388367;22;20026;-89
2023/07/30 10:11:31;;;;;;;15.38;3.15;;;;;;;;;;6360183;22;20023;-89
2023/07/30 10:14:11;;;;;;;8.52;2.55;;;;;;;;;;6385853;22;20019;-89
2023/07/30 10:17:02;;;;;;;11.55;2.92;;;;;;;;;;6359247;22;20070;-89
2023/07/30 10:19:32;;;;;;;12.77;3.13;;;;;;;;;;6360604;22;20079;-89
2023/07/30 10:25:22;;;;;;;19.40;4.13;;;;;;;;;;6387618;22;20010;-89
2023/07/30 10:27:52;;;;;;;12.85;2.97;;;;;;;;;;6360921;22;20056;-89
2023/07/30 10:30:57;;;;;;;13.30;3.78;;;;;;;;;;6365413;22;20036;-89
2023/07/30 10:33:45;;;;;;;11.23;2.80;;;;;;;;;;6364324;22;20026;-89
2023/07/30 10:36:45;;;;;;;11.73;2.65;;;;;;;;;;6358903;22;20021;-89
2023/07/30 10:39:36;;;;;;;14.40;2.85;;;;;;;;;;6362672;22;20021;-90
2023/07/30 10:42:18;;;;;;;12.70;3.20;;;;;;;;;;6363234;22;20270;-90
2023/07/30 10:44:57;;;;;;;12.00;2.90;;;;;;;;;;6389150;22;20106;-89
2023/07/30 10:47:46;;;;;;;16.20;3.10;;;;;;;;;;6361916;22;20050;-88
2023/07/30 10:50:25;;;;;;;14.60;2.95;;;;;;;;;;6386103;22;20080;-88
2023/07/30 10:53:02;;;;;;;10.02;2.22;;;;;;;;;;6360838;22;20221;-89
2023/07/30 10:55:38;;;;;;;15.05;3.35;;;;;;;;;;6357766;22;20014;-89
2023/07/30 10:58:27;;;;;;;11.73;2.85;;;;;;;;;;6354448;22;20022;-88
2023/07/30 11:01:08;;;;;;;13.27;2.70;;;;;;;;;;6357407;22;20013;-88
2023/07/30 11:03:41;;;;;;;10.88;2.95;;;;;;;;;;6380483;22;20025;-89
2023/07/30 11:06:21;;;;;;;10.73;2.83;;;;;;;;;;6353758;22;20162;-89
2023/07/30 11:09:03;;;;;;;13.07;2.53;;;;;;;;;;6350092;22;20026;-86
2023/07/30 11:11:53;;;;;;;12.60;2.70;;;;;;;;;;6349934;22;20038;-87
2023/07/30 11:14:37;;;;;;;8.70;2.58;;;;;;;;;;6347597;22;20026;-87
2023/07/30 11:17:20;;;;;;;8.82;2.20;;;;;;;;;;6352017;22;20070;-87
2023/07/30 11:20:07;;;;;;;9.00;2.28;;;;;;;;;;6352385;22;20017;-87
2023/07/30 11:22:58;;;;;;;13.07;2.22;;;;;;;;;;6321535;22;20026;-87
2023/07/30 11:25:40;;;;;;;9.65;2.05;;;;;;;;;;6318937;22;20051;-87
2023/07/30 11:28:31;;;;;;;9.13;2.20;;;;;;;;;;6319956;22;20023;-87
2023/07/30 11:31:21;;;;;;;7.40;2.45;;;;;;;;;;6347734;22;20048;-86
2023/07/30 11:34:03;;;;;;;7.00;1.80;;;;;;;;;;6319047;22;20011;-87
2023/07/30 11:36:35;;;;;;;10.40;2.33;;;;;;;;;;6323321;22;20023;-86
2023/07/30 11:39:37;;;;;;;9.38;2.55;;;;;;;;;;6354039;22;20007;-87
2023/07/30 11:42:31;;;;;;;8.15;2.22;;;;;;;;;;6349868;22;20019;-87
2023/07/30 11:45:27;;;;;;;12.30;2.83;;;;;;;;;;6330007;22;20329;-87
2023/07/30 11:48:10;;;;;;;12.05;2.25;;;;;;;;;;6327565;22;20101;-87
2023/07/30 11:50:54;;;;;;;7.55;2.30;;;;;;;;;;6328668;22;20081;-86
2023/07/30 11:53:50;;;;;;;9.75;2.47;;;;;;;;;;6329186;22;20189;-87
2023/07/30 11:56:37;;;;;;;7.47;2.37;;;;;;;;;;6322529;22;20011;-87
2023/07/30 11:59:21;;;;;;;8.02;2.28;;;;;;;;;;6352712;22;20078;-86
2023/07/30 12:02:04;;;;;;;10.38;2.63;;;;;;;;;;6354091;22;20028;-87
2023/07/30 12:04:48;;;;;;;14.00;3.15;;;;;;;;;;6329449;22;20014;-86
2023/07/30 12:07:31;;;;;;;13.45;3.70;;;;;;;;;;6333340;22;20015;-86
2023/07/30 12:14:11;;;;;;;3.30;1.08;;;;;;;;;;6355778;22;20025;-86
2023/07/30 12:17:03;;;;;;;3.15;1.38;;;;;;;;;;6327117;22;20025;-86
2023/07/30 12:19:51;;;;;;;4.60;1.27;;;;;;;;;;6348948;22;20014;-86
2023/07/30 12:22:38;;;;;;;5.00;1.55;;;;;;;;;;6343333;22;20152;-85
2023/07/30 12:25:10;;;;;;;3.90;1.40;;;;;;;;;;6350040;22;20017;-86
2023/07/30 12:27:51;;;;;;;5.78;1.30;;;;;;;;;;6352455;22;20003;-86
2023/07/30 12:30:48;;;;;;;5.60;1.50;;;;;;;;;;6359976;22;20002;-87
2023/07/30 12:42:17;;;;;;;9.25;2.30;;;;;;;;;;6270726;22;20003;-86
2023/07/30 12:45:03;;;;;;;8.77;1.83;;;;;;;;;;6292621;22;20043;-87
2023/07/30 12:48:03;;;;;;;7.97;1.75;;;;;;;;;;6271933;22;20031;-87
2023/07/30 12:50:48;;;;;;;8.35;1.33;;;;;;;;;;6264264;22;20028;-86
2023/07/30 12:53:53;;;;;;;6.20;1.50;;;;;;;;;;6264564;22;20503;-87
2023/07/30 12:56:36;;;;;;;3.00;1.42;;;;;;;;;;6268450;22;20020;-86
2023/07/30 12:59:37;;;;;;;5.60;1.27;;;;;;;;;;6265722;22;20023;-85
2023/07/30 13:02:29;;;;;;;7.47;1.70;;;;;;;;;;6268522;22;20020;-86
2023/07/30 13:05:31;;;;;;;4.82;1.90;;;;;;;;;;6265765;22;20457;-87
2023/07/30 13:08:17;;;;;;;7.60;1.85;;;;;;;;;;6266399;22;20111;-87
2023/07/30 13:11:50;;;;;;;8.32;2.55;;;;;;;;;;6268347;22;20004;-87
2023/07/30 13:14:32;;;;;;;4.57;1.60;;;;;;;;;;6261871;23;20012;-86
2023/07/30 13:17:14;;;;;;;6.72;1.63;;;;;;;;;;6262778;22;20038;-88
2023/07/30 13:20:17;;;;;;;9.20;1.60;;;;;;;;;;6262885;22;20004;-87
2023/07/30 13:22:59;;;;;;;5.00;1.20;;;;;;;;;;6257072;22;20020;-86
2023/07/30 13:25:40;;;;;;;6.38;1.48;;;;;;;;;;6259693;22;20050;-87
2023/07/30 13:28:22;;;;;;;7.13;1.23;;;;;;;;;;6256663;22;20020;-86
2023/07/30 13:31:06;;;;;;;5.78;1.63;;;;;;;;;;6271966;22;20686;-88
2023/07/30 13:37:22;;;;;;;9.60;1.77;;;;;;;;;;6340465;22;20056;-86
2023/07/30 13:40:07;;;;;;;7.10;1.70;;;;;;;;;;6327880;22;20352;-87
2023/07/30 13:42:55;;;;;;;7.90;1.70;;;;;;;;;;6322590;22;20026;-86
2023/07/30 13:45:36;;;;;;;6.78;1.52;;;;;;;;;;6325248;22;20034;-87
2023/07/30 13:48:35;;;;;;;4.63;1.10;;;;;;;;;;6327278;22;20042;-86
2023/07/30 13:51:21;;;;;;;5.80;1.55;;;;;;;;;;6316370;22;20026;-86
2023/07/30 13:54:07;;;;;;;7.18;1.55;;;;;;;;;;6347792;22;19999;-85
2023/07/30 13:56:48;;;;;;;4.20;1.27;;;;;;;;;;6323036;22;20018;-85
2023/07/30 13:59:22;;;;;;;4.80;1.38;;;;;;;;;;6322022;22;20072;-85
2023/07/30 14:02:04;;;;;;;7.32;1.67;;;;;;;;;;6326461;22;20022;-88
2023/07/30 14:05:01;;;;;;;9.43;1.60;;;;;;;;;;6349755;22;20023;-85
2023/07/30 14:07:47;;;;;;;7.97;1.25;;;;;;;;;;6326694;22;20014;-86
2023/07/30 14:10:28;;;;;;;6.50;1.77;;;;;;;;;;6329201;22;20032;-87
2023/07/30 14:13:12;;;;;;;5.47;1.58;;;;;;;;;;6353667;22;20090;-86
2023/07/30 14:15:56;;;;;;;9.05;1.33;;;;;;;;;;6345970;22;20042;-87
2023/07/30 14:18:42;;;;;;;4.55;1.30;;;;;;;;;;6332260;22;20076;-86
2023/07/30 14:21:27;;;;;;;6.30;1.60;;;;;;;;;;6347849;22;20014;-85
2023/07/30 14:24:15;;;;;;;3.17;1.00;;;;;;;;;;6345254;22;20011;-84
2023/07/30 14:26:59;;;;;;;9.43;1.38;;;;;;;;;;6320745;22;20027;-85
2023/07/30 14:29:40;;;;;;;4.05;1.55;;;;;;;;;;6347621;22;20214;-86
2023/07/30 14:32:37;;;;;;;8.52;1.35;;;;;;;;;;6327524;22;20014;-85
2023/07/30 14:35:23;;;;;;;5.10;1.52;;;;;;;;;;6318059;22;20042;-86
2023/07/30 14:38:09;;;;;;;6.20;1.47;;;;;;;;;;6345973;22;20341;-86
2023/07/30 14:40:50;;;;;;;;;;;;;;;;;;6323711;22;20022;-85
2023/07/30 14:43:39;;;;;;;12.27;2.30;;;;;;;;;;6338107;22;19930;-85
2023/07/30 14:52:14;;;;;;;4.95;1.50;;;;;;;;;;6299899;22;20444;-87
2023/07/30 14:54:47;;;;;;;10.13;2.10;;;;;;;;;;6300800;22;20019;-87
2023/07/30 15:05:10;;;;;;;5.37;2.20;;;;;;;;;;6317337;22;20033;-88
2023/07/30 15:08:00;;;;;;;5.57;2.17;;;;;;;;;;6335403;22;20026;-87
2023/07/30 15:10:41;;;;;;;5.30;2.40;;;;;;;;;;6336102;22;20027;-88
2023/07/30 15:13:35;;;;;;;6.82;2.58;;;;;;;;;;6335553;22;20017;-87
2023/07/30 15:16:40;;;;;;;4.32;1.80;;;;;;;;;;6363501;22;20163;-86
2023/07/30 15:22:19;;;;;;;8.57;2.40;;;;;;;;;;6293108;22;20002;-87
2023/07/30 15:25:24;;;;;;;5.13;2.78;;;;;;;;;;6336500;22;20064;-88
2023/07/30 15:45:18;;;;;;;4.45;1.10;;;;;;;;;;6316039;22;20019;-86
2023/07/30 15:50:50;;;;;;;3.90;1.10;;;;;;;;;;6359748;22;20058;-86
2023/07/30 15:53:37;;;;;;;4.65;1.17;;;;;;;;;;6362725;22;20416;-88
2023/07/30 15:59:50;;;;;;;5.63;1.08;;;;;;;;;;6358900;22;20025;-87
2023/07/30 16:02:34;;;;;;;5.30;1.23;;;;;;;;;;6357051;22;20044;-86
2023/07/30 16:05:18;;;;;;;3.13;1.00;;;;;;;;;;6333070;22;20021;-86
2023/07/30 16:08:03;;;;;;;7.72;1.13;;;;;;;;;;6333362;22;20042;-87
2023/07/30 16:11:07;;;;;;;5.63;1.10;;;;;;;;;;6353741;22;20014;-86
2023/07/30 16:13:55;;;;;;;2.63;0.88;;;;;;;;;;6339090;22;20447;-89
2023/07/30 16:16:41;;;;;;;4.00;1.58;;;;;;;;;;6328546;22;20010;-86
2023/07/30 16:19:41;;;;;;;4.73;1.13;;;;;;;;;;6329599;22;20002;-87
2023/07/30 16:22:47;;;;;;;6.38;1.25;;;;;;;;;;6352421;22;20018;-86
2023/07/30 16:25:40;;;;;;;4.93;1.02;;;;;;;;;;6360101;22;20027;-89
2023/07/30 16:28:16;;;;;;;5.57;0.98;;;;;;;;;;6361457;22;20011;-89
2023/07/30 16:30:59;;;;;;;4.95;1.00;;;;;;;;;;6358467;22;20011;-88
2023/07/30 16:33:33;;;;;;;4.57;1.23;;;;;;;;;;6334069;22;20035;-90
2023/07/30 16:36:19;;;;;;;7.55;1.48;;;;;;;;;;6360569;22;20092;-88